createdAt,value
2018-02-15T00:01:10.679Z,30.37
2018-02-15T00:03:39.019Z,26.45
2018-02-15T00:06:06.541Z,25.08
2018-02-15T00:08:34.046Z,28.60
2018-02-15T00:11:01.543Z,33.40
2018-02-15T00:13:29.053Z,32.53
2018-02-15T00:15:56.563Z,30.98
2018-02-15T00:18:24.083Z,29.08
2018-02-15T00:20:51.601Z,32.58
2018-02-15T00:23:19.877Z,30.00
2018-02-15T00:25:47.395Z,33.88
2018-02-15T00:28:14.936Z,29.55
2018-02-15T00:30:42.452Z,31.25
2018-02-15T00:33:09.950Z,26.37
2018-02-15T00:35:37.471Z,26.95
2018-02-15T00:38:04.952Z,26.98
2018-02-15T00:40:32.525Z,31.77
2018-02-15T00:43:00.107Z,31.67
2018-02-15T00:45:28.475Z,30.85
2018-02-15T00:47:56.072Z,28.62
2018-02-15T00:50:23.693Z,23.02
2018-02-15T00:52:51.250Z,26.58
2018-02-15T00:55:18.727Z,24.77
2018-02-15T00:57:46.229Z,24.45
2018-02-15T01:00:13.747Z,27.00
2018-02-15T01:02:41.251Z,22.25
2018-02-15T01:05:08.874Z,23.77
2018-02-15T01:07:36.392Z,26.58
2018-02-15T01:10:03.869Z,24.98
2018-02-15T01:12:31.375Z,27.33
2018-02-15T01:14:58.941Z,23.45
2018-02-15T01:17:26.425Z,23.60
2018-02-15T01:19:53.922Z,22.00
2018-02-15T01:22:21.589Z,30.55
2018-02-15T01:24:49.113Z,23.60
2018-02-15T01:27:16.603Z,27.65
2018-02-15T01:29:44.127Z,27.05
2018-02-15T01:32:11.604Z,24.63
2018-02-15T01:34:39.477Z,23.62
2018-02-15T01:37:07.035Z,24.73
2018-02-15T01:39:34.608Z,28.73
2018-02-15T01:42:02.181Z,23.90
2018-02-15T01:44:29.710Z,22.90
2018-02-15T01:46:57.275Z,20.58
2018-02-15T01:49:24.871Z,23.38
2018-02-15T01:51:52.430Z,23.65
2018-02-15T01:54:19.934Z,24.80
2018-02-15T01:56:47.451Z,23.20
2018-02-15T01:59:14.992Z,22.77
2018-02-15T02:01:42.495Z,25.80
2018-02-15T02:04:10.012Z,22.80
2018-02-15T02:06:37.496Z,24.02
2018-02-15T02:09:05.006Z,43.03
2018-02-15T02:11:32.497Z,20.17
2018-02-15T02:14:00.020Z,22.73
2018-02-15T02:16:27.501Z,20.10
2018-02-15T02:18:55.014Z,20.23
2018-02-15T02:21:22.499Z,20.62
2018-02-15T02:23:52.288Z,18.10
2018-02-15T02:26:19.806Z,19.70
2018-02-15T02:28:47.304Z,22.00
2018-02-15T02:31:14.860Z,17.25
2018-02-15T02:33:42.422Z,17.87
2018-02-15T02:36:10.011Z,19.27
2018-02-15T02:38:37.615Z,15.25
2018-02-15T02:41:05.249Z,16.67
2018-02-15T02:43:32.806Z,16.67
2018-02-15T02:46:00.327Z,20.15
2018-02-15T02:48:28.006Z,15.05
2018-02-15T02:50:55.505Z,14.90
2018-02-15T02:53:23.013Z,15.60
2018-02-15T02:55:50.495Z,14.10
2018-02-15T02:58:18.016Z,20.27
2018-02-15T03:03:19.311Z,16.42
2018-02-15T03:05:46.795Z,21.25
2018-02-15T03:08:14.396Z,18.50
2018-02-15T03:10:41.861Z,18.00
2018-02-15T03:13:09.380Z,19.83
2018-02-15T03:15:36.872Z,17.08
2018-02-15T03:18:04.358Z,17.35
2018-02-15T03:20:31.974Z,21.10
2018-02-15T03:22:59.468Z,17.73
2018-02-15T03:25:26.980Z,18.58
2018-02-15T03:27:54.458Z,17.27
2018-02-15T03:30:21.980Z,21.40
2018-02-15T03:32:49.591Z,21.05
2018-02-15T03:35:17.157Z,16.00
2018-02-15T03:37:44.686Z,19.77
2018-02-15T03:40:12.184Z,17.75
2018-02-15T03:42:39.700Z,15.95
2018-02-15T03:45:07.169Z,16.42
2018-02-15T03:47:34.676Z,20.12
2018-02-15T03:50:02.152Z,15.05
2018-02-15T03:52:29.685Z,13.68
2018-02-15T03:54:57.162Z,17.90
2018-02-15T03:57:24.638Z,20.35
2018-02-15T03:59:52.145Z,21.48
2018-02-15T04:02:19.661Z,21.77
2018-02-15T04:04:47.194Z,14.50
2018-02-15T04:07:14.815Z,19.65
2018-02-15T04:09:42.317Z,16.45
2018-02-15T04:12:09.794Z,17.60
2018-02-15T04:14:37.299Z,15.43
2018-02-15T04:17:04.869Z,14.68
2018-02-15T04:19:32.369Z,15.18
2018-02-15T04:21:59.894Z,16.73
2018-02-15T04:24:27.381Z,19.73
2018-02-15T04:26:54.905Z,17.15
2018-02-15T04:29:22.391Z,18.70
2018-02-15T04:31:49.888Z,15.68
2018-02-15T04:34:17.401Z,17.65
2018-02-15T04:36:44.903Z,18.52
2018-02-15T04:39:12.438Z,19.65
2018-02-15T04:41:39.918Z,15.15
2018-02-15T04:44:07.433Z,17.62
2018-02-15T04:46:34.914Z,18.23
2018-02-15T04:49:02.447Z,17.73
2018-02-15T04:51:29.933Z,18.30
2018-02-15T04:53:57.685Z,17.67
2018-02-15T04:56:25.186Z,19.83
2018-02-15T04:58:52.663Z,21.08
2018-02-15T05:01:20.186Z,15.65
2018-02-15T05:03:47.665Z,20.95
2018-02-15T05:06:15.179Z,19.20
2018-02-15T05:08:42.656Z,18.05
2018-02-15T05:11:10.181Z,20.92
2018-02-15T05:13:37.739Z,16.02
2018-02-15T05:16:05.244Z,16.62
2018-02-15T05:18:32.917Z,18.55
2018-02-15T05:21:00.566Z,21.70
2018-02-15T05:23:28.108Z,20.30
2018-02-15T05:25:55.744Z,22.05
2018-02-15T05:28:23.263Z,21.10
2018-02-15T05:30:50.754Z,18.62
2018-02-15T05:33:18.259Z,20.73
2018-02-15T05:35:45.827Z,21.37
2018-02-15T05:38:13.302Z,16.75
2018-02-15T05:40:40.806Z,19.33
2018-02-15T05:43:08.279Z,17.87
2018-02-15T05:45:35.788Z,21.15
2018-02-15T05:48:03.257Z,24.17
2018-02-15T05:50:31.503Z,20.42
2018-02-15T05:52:59.025Z,20.77
2018-02-15T05:55:26.533Z,19.90
2018-02-15T05:57:54.047Z,20.58
2018-02-15T06:00:21.581Z,23.48
2018-02-15T06:02:49.085Z,20.30
2018-02-15T06:05:16.558Z,23.52
2018-02-15T06:07:44.071Z,21.15
2018-02-15T06:10:11.559Z,26.27
2018-02-15T06:12:39.056Z,24.00
2018-02-15T06:15:06.579Z,20.12
2018-02-15T06:17:36.117Z,16.60
2018-02-15T06:20:03.682Z,18.85
2018-02-15T06:22:31.265Z,22.40
2018-02-15T06:24:58.833Z,18.70
2018-02-15T06:27:26.408Z,19.65
2018-02-15T06:29:53.954Z,25.58
2018-02-15T06:32:21.461Z,22.90
2018-02-15T06:34:48.971Z,21.30
2018-02-15T06:37:16.509Z,19.85
2018-02-15T06:39:43.978Z,16.12
2018-02-15T06:42:11.495Z,22.35
2018-02-15T06:44:38.970Z,19.08
2018-02-15T06:47:06.473Z,20.83
2018-02-15T06:49:33.957Z,18.92
2018-02-15T06:52:01.456Z,18.60
2018-02-15T06:54:28.928Z,16.80
2018-02-15T06:56:56.499Z,16.42
2018-02-15T06:59:24.020Z,17.02
2018-02-15T07:01:51.586Z,17.50
2018-02-15T07:04:19.217Z,15.68
2018-02-15T07:06:46.874Z,16.90
2018-02-15T07:09:14.451Z,16.37
2018-02-15T07:11:42.006Z,22.10
2018-02-15T07:14:09.654Z,15.50
2018-02-15T07:16:37.253Z,17.33
2018-02-15T07:19:04.744Z,16.02
2018-02-15T07:21:32.280Z,18.17
2018-02-15T07:23:59.780Z,16.98
2018-02-15T07:26:27.295Z,17.52
2018-02-15T07:28:54.804Z,19.55
2018-02-15T07:31:22.289Z,20.90
2018-02-15T07:33:49.771Z,14.90
2018-02-15T07:36:17.282Z,19.55
2018-02-15T07:38:44.782Z,18.70
2018-02-15T07:41:12.314Z,20.90
2018-02-15T07:43:39.826Z,20.20
2018-02-15T07:46:07.363Z,18.23
2018-02-15T07:48:34.861Z,25.23
2018-02-15T07:51:02.408Z,14.63
2018-02-15T07:53:29.914Z,18.50
2018-02-15T07:55:57.416Z,21.17
2018-02-15T07:58:24.943Z,19.37
2018-02-15T08:00:53.022Z,23.62
2018-02-15T08:03:20.532Z,22.80
2018-02-15T08:05:48.141Z,22.83
2018-02-15T08:08:15.733Z,19.40
2018-02-15T08:10:43.311Z,19.20
2018-02-15T08:13:10.860Z,19.17
2018-02-15T08:15:38.372Z,14.80
2018-02-15T08:18:05.863Z,16.40
2018-02-15T08:20:33.395Z,14.80
2018-02-15T08:23:00.872Z,15.52
2018-02-15T08:25:28.386Z,19.40
2018-02-15T08:27:55.874Z,16.17
2018-02-15T08:30:23.365Z,17.70
2018-02-15T08:32:50.928Z,21.70
2018-02-15T08:35:18.411Z,18.58
2018-02-15T08:37:45.955Z,17.95
2018-02-15T08:40:14.224Z,16.58
2018-02-15T08:42:41.882Z,17.95
2018-02-15T08:45:09.458Z,21.85
2018-02-15T08:47:37.084Z,19.58
2018-02-15T08:50:04.649Z,19.20
2018-02-15T08:52:32.189Z,20.37
2018-02-15T08:54:59.696Z,21.37
2018-02-15T08:57:27.212Z,16.55
2018-02-15T08:59:54.750Z,21.30
2018-02-15T09:02:22.250Z,19.37
2018-02-15T09:04:49.788Z,18.45
2018-02-15T09:07:17.289Z,19.02
2018-02-15T09:09:44.799Z,12.73
2018-02-15T09:12:12.307Z,16.45
2018-02-15T09:14:39.832Z,17.52
2018-02-15T09:17:08.197Z,18.60
2018-02-15T09:19:35.799Z,21.15
2018-02-15T09:22:03.307Z,20.30
2018-02-15T09:24:30.872Z,20.40
2018-02-15T09:26:58.382Z,20.08
2018-02-15T09:29:25.894Z,21.02
2018-02-15T09:31:53.399Z,18.95
2018-02-15T09:34:20.918Z,20.75
2018-02-15T09:36:48.490Z,19.85
2018-02-15T09:39:15.982Z,20.83
2018-02-15T09:41:43.492Z,23.40
2018-02-15T09:44:10.971Z,27.23
2018-02-15T09:46:38.477Z,25.92
2018-02-15T09:49:05.951Z,22.40
2018-02-15T09:51:33.477Z,21.37
2018-02-15T09:54:01.117Z,23.55
2018-02-15T09:56:28.610Z,24.05
2018-02-15T09:58:56.129Z,22.50
2018-02-15T10:01:23.613Z,26.48
2018-02-15T10:03:51.118Z,21.65
2018-02-15T10:06:18.615Z,23.33
2018-02-15T10:08:46.144Z,24.42
2018-02-15T10:11:13.633Z,25.52
2018-02-15T10:13:41.154Z,25.40
2018-02-15T10:16:08.635Z,27.30
2018-02-15T10:18:36.169Z,22.60
2018-02-15T10:21:03.686Z,24.80
2018-02-15T10:23:31.181Z,23.05
2018-02-15T10:25:58.820Z,26.75
2018-02-15T10:28:26.433Z,24.10
2018-02-15T10:30:53.974Z,22.83
2018-02-15T10:33:21.483Z,22.10
2018-02-15T10:35:49.009Z,21.85
2018-02-15T10:38:16.583Z,27.33
2018-02-15T10:40:44.106Z,30.15
2018-02-15T10:43:11.632Z,24.75
2018-02-15T10:45:39.142Z,47.70
2018-02-15T10:48:06.659Z,36.17
2018-02-15T10:50:34.168Z,36.75
2018-02-15T10:53:01.684Z,35.20
2018-02-15T10:55:29.177Z,32.70
2018-02-15T10:57:56.707Z,32.65
2018-02-15T11:00:29.797Z,30.77
2018-02-15T11:03:03.505Z,33.30
2018-02-15T11:05:32.287Z,31.80
2018-02-15T11:07:59.792Z,31.05
2018-02-15T11:10:27.336Z,30.55
2018-02-15T11:12:54.857Z,31.02
2018-02-15T11:15:22.375Z,32.00
2018-02-15T11:17:49.929Z,26.83
2018-02-15T11:20:17.572Z,23.15
2018-02-15T11:22:45.090Z,20.45
2018-02-15T11:25:12.735Z,19.05
2018-02-15T11:27:40.344Z,16.90
2018-02-15T11:30:07.877Z,21.52
2018-02-15T11:32:35.366Z,21.85
2018-02-15T11:35:03.759Z,27.55
2018-02-15T11:37:31.276Z,26.87
2018-02-15T11:39:59.500Z,24.87
2018-02-15T11:42:27.023Z,22.92
2018-02-15T11:44:54.549Z,18.48
2018-02-15T11:47:22.060Z,20.17
2018-02-15T11:49:49.551Z,19.45
2018-02-15T11:52:17.087Z,23.23
2018-02-15T11:54:44.567Z,19.12
2018-02-15T11:57:12.125Z,17.60
2018-02-15T11:59:39.613Z,19.08
2018-02-15T12:02:07.123Z,15.43
2018-02-15T12:04:34.680Z,15.13
2018-02-15T12:07:02.169Z,15.85
2018-02-15T12:09:29.686Z,15.85
2018-02-15T12:11:57.180Z,17.10
2018-02-15T12:14:25.309Z,17.62
2018-02-15T12:16:52.810Z,16.30
2018-02-15T12:19:20.338Z,16.37
2018-02-15T12:21:47.848Z,16.62
2018-02-15T12:24:15.337Z,17.23
2018-02-15T12:26:42.848Z,16.35
2018-02-15T12:29:10.344Z,19.50
2018-02-15T12:31:37.853Z,22.42
2018-02-15T12:34:05.352Z,16.67
2018-02-15T12:36:32.945Z,19.33
2018-02-15T12:39:00.516Z,18.48
2018-02-15T12:41:28.061Z,20.27
2018-02-15T12:43:55.742Z,20.00
2018-02-15T12:46:23.299Z,18.58
2018-02-15T12:48:50.824Z,21.17
2018-02-15T12:51:18.314Z,19.55
2018-02-15T12:53:45.860Z,23.83
2018-02-15T12:56:13.345Z,24.70
2018-02-15T12:58:40.909Z,20.42
2018-02-15T13:01:08.408Z,23.70
2018-02-15T13:03:35.911Z,23.42
2018-02-15T13:06:03.463Z,22.33
2018-02-15T13:08:30.990Z,24.12
2018-02-15T13:10:58.502Z,26.55
2018-02-15T13:13:31.821Z,22.58
2018-02-15T13:19:16.285Z,24.58
2018-02-15T13:21:43.828Z,26.98
2018-02-15T13:24:11.348Z,25.98
2018-02-15T13:26:38.846Z,24.73
2018-02-15T13:29:06.392Z,25.23
2018-02-15T13:31:33.874Z,25.52
2018-02-15T13:34:01.401Z,27.08
2018-02-15T13:36:28.938Z,26.62
2018-02-15T13:38:57.082Z,31.85
2018-02-15T13:41:24.606Z,27.62
2018-02-15T13:43:52.926Z,26.50
2018-02-15T13:46:20.418Z,25.48
2018-02-15T13:48:47.949Z,26.90
2018-02-15T13:51:15.448Z,28.73
2018-02-15T13:53:42.997Z,23.83
2018-02-15T13:56:10.619Z,24.92
2018-02-15T13:58:38.152Z,24.50
2018-02-15T14:01:05.677Z,25.30
2018-02-15T14:03:33.179Z,27.80
2018-02-15T14:06:00.703Z,24.48
2018-02-15T14:08:28.222Z,23.85
2018-02-15T14:10:55.781Z,25.20
2018-02-15T14:13:23.275Z,26.80
2018-02-15T14:15:50.812Z,22.55
2018-02-15T14:18:18.353Z,22.73
2018-02-15T14:20:46.334Z,29.95
2018-02-15T14:23:13.939Z,26.40
2018-02-15T14:25:41.497Z,26.48
2018-02-15T14:28:09.135Z,23.95
2018-02-15T14:30:36.755Z,24.58
2018-02-15T14:33:04.302Z,25.65
2018-02-15T14:35:31.940Z,26.77
2018-02-15T14:37:59.474Z,24.37
2018-02-15T14:40:27.018Z,31.73
2018-02-15T14:42:54.534Z,24.40
2018-02-15T14:45:22.067Z,23.77
2018-02-15T14:47:49.567Z,28.60
2018-02-15T14:50:17.103Z,26.60
2018-02-15T14:52:44.628Z,28.12
2018-02-15T14:55:12.125Z,24.25
2018-02-15T14:57:39.641Z,23.70
2018-02-15T15:00:07.149Z,22.25
2018-02-15T15:02:34.818Z,24.02
2018-02-15T15:05:02.333Z,23.05
2018-02-15T15:07:29.859Z,25.62
2018-02-15T15:09:57.377Z,24.00
2018-02-15T15:12:24.998Z,22.65
2018-02-15T15:14:53.265Z,25.80
2018-02-15T15:17:20.797Z,24.42
2018-02-15T15:19:48.317Z,22.80
2018-02-15T15:22:15.852Z,23.62
2018-02-15T15:24:43.383Z,24.05
2018-02-15T15:27:11.046Z,23.83
2018-02-15T15:29:38.650Z,25.00
2018-02-15T15:32:06.632Z,22.75
2018-02-15T15:34:34.194Z,26.85
2018-02-15T15:37:01.804Z,25.52
2018-02-15T15:39:29.316Z,27.30
2018-02-15T15:41:56.912Z,31.12
2018-02-15T15:44:24.717Z,25.17
2018-02-15T15:46:52.265Z,23.20
2018-02-15T15:49:19.771Z,25.90
2018-02-15T15:51:47.325Z,26.15
2018-02-15T15:54:14.842Z,26.33
2018-02-15T15:56:42.370Z,26.92
2018-02-15T15:59:09.899Z,27.70
2018-02-15T16:01:37.581Z,25.92
2018-02-15T16:04:05.133Z,26.15
2018-02-15T16:06:33.402Z,27.70
2018-02-15T16:09:01.556Z,23.80
2018-02-15T16:11:29.569Z,26.12
2018-02-15T16:13:57.079Z,28.48
2018-02-15T16:16:24.623Z,23.55
2018-02-15T16:18:52.282Z,28.23
2018-02-15T16:21:19.803Z,24.48
2018-02-15T16:23:47.330Z,27.17
2018-02-15T16:26:14.972Z,27.87
2018-02-15T16:31:16.295Z,28.80
2018-02-15T16:33:43.822Z,28.62
2018-02-15T16:36:11.387Z,29.85
2018-02-15T16:38:38.889Z,32.35
2018-02-15T16:41:06.580Z,26.83
2018-02-15T16:43:34.103Z,30.17
2018-02-15T16:46:01.604Z,26.55
2018-02-15T16:48:29.145Z,25.48
2018-02-15T16:50:56.670Z,28.20
2018-02-15T16:53:24.574Z,30.35
2018-02-15T16:55:52.706Z,49.03
2018-02-15T16:58:20.241Z,39.65
2018-02-15T17:00:47.823Z,34.05
2018-02-15T17:03:15.345Z,30.05
2018-02-15T17:05:42.845Z,31.23
2018-02-15T17:08:10.471Z,28.73
2018-02-15T17:10:38.030Z,34.33
2018-02-15T17:13:05.750Z,36.07
2018-02-15T17:15:33.414Z,29.23
2018-02-15T17:18:00.981Z,35.67
2018-02-15T17:20:28.703Z,33.50
2018-02-15T17:22:56.243Z,39.92
2018-02-15T17:25:23.799Z,32.65
2018-02-15T17:27:51.442Z,32.58
2018-02-15T17:30:18.966Z,34.63
2018-02-15T17:32:46.913Z,37.95
2018-02-15T17:35:14.493Z,45.23
2018-02-15T17:37:42.021Z,51.33
2018-02-15T17:40:09.514Z,37.80
2018-02-15T17:42:37.035Z,43.03
2018-02-15T17:45:04.571Z,49.40
2018-02-15T17:47:32.587Z,91.63
2018-02-15T17:50:00.183Z,71.22
2018-02-15T17:52:27.735Z,54.30
2018-02-15T17:54:55.311Z,38.95
2018-02-15T17:57:22.829Z,34.87
2018-02-15T17:59:50.345Z,36.73
2018-02-15T18:02:17.907Z,49.67
2018-02-15T18:04:45.481Z,48.35
2018-02-15T18:07:13.026Z,51.17
2018-02-15T18:09:40.543Z,41.78
2018-02-15T18:12:08.472Z,45.70
2018-02-15T18:14:36.077Z,36.53
2018-02-15T18:17:03.671Z,35.95
2018-02-15T18:19:31.263Z,34.35
2018-02-15T18:21:58.813Z,34.28
2018-02-15T18:24:26.583Z,39.40
2018-02-15T18:26:54.119Z,34.83
2018-02-15T18:29:21.691Z,34.92
2018-02-15T18:31:49.209Z,38.83
2018-02-15T18:34:16.753Z,31.95
2018-02-15T18:36:44.344Z,33.63
2018-02-15T18:39:11.905Z,33.40
2018-02-15T18:41:39.711Z,35.10
2018-02-15T18:44:07.245Z,30.53
2018-02-15T18:46:34.829Z,37.00
2018-02-15T18:49:02.390Z,35.40
2018-02-15T18:51:29.918Z,41.17
2018-02-15T18:53:57.493Z,36.97
2018-02-15T18:56:25.085Z,35.87
2018-02-15T18:58:52.697Z,35.67
2018-02-15T19:01:20.218Z,32.63
2018-02-15T19:03:47.744Z,35.15
2018-02-15T19:06:15.344Z,28.52
2018-02-15T19:08:42.901Z,30.87
2018-02-15T19:11:10.422Z,30.90
2018-02-15T19:13:37.958Z,32.20
2018-02-15T19:16:05.654Z,28.90
2018-02-15T19:18:33.174Z,30.13
2018-02-15T19:21:01.170Z,30.80
2018-02-15T19:23:28.711Z,27.67
2018-02-15T19:25:56.254Z,41.80
2018-02-15T19:28:23.822Z,24.17
2018-02-15T19:30:51.566Z,25.05
2018-02-15T19:33:19.093Z,29.50
2018-02-15T19:35:46.921Z,30.10
2018-02-15T19:38:14.425Z,27.85
2018-02-15T19:40:41.970Z,34.13
2018-02-15T19:43:09.495Z,26.08
2018-02-15T19:45:37.026Z,27.75
2018-02-15T19:48:04.804Z,29.20
2018-02-15T19:50:32.414Z,24.95
2018-02-15T19:52:59.987Z,34.78
2018-02-15T19:55:27.585Z,25.95
2018-02-15T19:57:55.497Z,33.27
2018-02-15T20:00:23.064Z,34.20
2018-02-15T20:02:50.600Z,25.47
2018-02-15T20:05:18.172Z,33.60
2018-02-15T20:07:45.815Z,31.70
2018-02-15T20:10:13.378Z,26.52
2018-02-15T20:12:40.897Z,23.63
2018-02-15T20:15:09.271Z,25.50
2018-02-15T20:17:36.883Z,30.70
2018-02-15T20:20:10.148Z,29.15
2018-02-15T20:22:37.640Z,29.55
2018-02-15T20:25:05.234Z,29.75
2018-02-15T20:30:37.107Z,31.00
2018-02-15T20:33:04.619Z,27.83
2018-02-15T20:35:32.154Z,30.00
2018-02-15T20:38:05.545Z,27.20
2018-02-15T20:40:36.706Z,30.90
2018-02-15T20:43:04.383Z,28.47
2018-02-15T20:45:31.909Z,26.53
2018-02-15T20:47:59.425Z,26.60
2018-02-15T20:50:32.393Z,28.73
2018-02-15T20:53:05.626Z,31.20
2018-02-15T20:55:38.608Z,26.83
2018-02-15T20:58:06.827Z,28.93
2018-02-15T21:00:34.528Z,24.93
2018-02-15T21:03:02.208Z,29.65
2018-02-15T21:05:29.778Z,28.02
2018-02-15T21:07:57.337Z,31.98
2018-02-15T21:10:24.843Z,56.67
2018-02-15T21:12:52.411Z,38.07
2018-02-15T21:15:19.981Z,36.23
2018-02-15T21:17:47.506Z,33.00
2018-02-15T21:20:15.039Z,37.88
2018-02-15T21:22:42.541Z,39.03
2018-02-15T21:25:10.057Z,47.97
2018-02-15T21:27:37.628Z,48.03
2018-02-15T21:30:05.340Z,39.50
2018-02-15T21:32:32.895Z,40.57
2018-02-15T21:35:00.415Z,39.30
2018-02-15T21:37:27.940Z,37.00
2018-02-15T21:39:55.492Z,33.53
2018-02-15T21:42:23.029Z,30.17
2018-02-15T21:44:50.530Z,32.10
2018-02-15T21:47:18.040Z,27.73
2018-02-15T21:49:45.553Z,28.60
2018-02-15T21:52:13.078Z,27.07
2018-02-15T21:54:40.611Z,26.10
2018-02-15T21:57:08.158Z,26.33
2018-02-15T21:59:35.662Z,30.70
2018-02-15T22:02:03.170Z,29.80
2018-02-15T22:04:30.704Z,32.03
2018-02-15T22:06:58.221Z,33.00
2018-02-15T22:09:25.792Z,29.92
2018-02-15T22:11:53.286Z,30.00
2018-02-15T22:14:20.986Z,26.80
2018-02-15T22:16:48.489Z,32.90
2018-02-15T22:19:16.006Z,33.43
2018-02-15T22:21:43.539Z,29.17
2018-02-15T22:24:11.046Z,25.67
2018-02-15T22:26:38.569Z,28.40
2018-02-15T22:29:06.065Z,34.83
2018-02-15T22:31:33.608Z,31.90
2018-02-15T22:34:01.128Z,29.83
2018-02-15T22:36:28.667Z,30.87
2018-02-15T22:39:00.461Z,26.37
2018-02-15T22:41:27.980Z,28.87
2018-02-15T22:43:55.553Z,26.00
2018-02-15T22:46:23.074Z,29.20
2018-02-15T22:48:50.564Z,30.27
2018-02-15T22:51:18.373Z,30.30
2018-02-15T22:53:45.869Z,30.77
2018-02-15T22:56:13.375Z,30.57
2018-02-15T22:58:40.901Z,29.80
2018-02-15T23:01:08.389Z,31.93
2018-02-15T23:03:35.951Z,40.90
2018-02-15T23:06:03.510Z,34.47
2018-02-15T23:08:31.016Z,31.10
2018-02-15T23:10:58.489Z,34.37
2018-02-15T23:13:26.003Z,34.23
2018-02-15T23:15:53.549Z,35.80
2018-02-15T23:18:21.168Z,40.63
2018-02-15T23:20:48.725Z,39.90
2018-02-15T23:23:17.016Z,31.57
2018-02-15T23:25:44.810Z,33.97
2018-02-15T23:28:12.337Z,31.40
2018-02-15T23:30:39.923Z,33.57
2018-02-15T23:33:07.493Z,31.00
2018-02-15T23:35:35.038Z,32.80
2018-02-15T23:38:02.538Z,32.47
2018-02-15T23:40:30.044Z,34.40
2018-02-15T23:42:57.565Z,33.37
2018-02-15T23:45:25.074Z,31.00
2018-02-15T23:47:52.587Z,28.47
2018-02-15T23:50:20.372Z,26.47
2018-02-15T23:52:47.862Z,31.60
2018-02-15T23:55:15.389Z,38.00
2018-02-15T23:57:42.879Z,38.13
